createdAt,value
2022-09-25T00:00:54.522Z,16.52
2022-09-25T00:03:38.149Z,20.58
2022-09-25T00:06:09.401Z,21.30
2022-09-25T00:08:40.061Z,30.40
2022-09-25T00:11:10.489Z,15.95
2022-09-25T00:13:40.437Z,20.90
2022-09-25T00:16:10.873Z,20.27
2022-09-25T00:19:01.040Z,19.38
2022-09-25T00:21:33.282Z,17.92
2022-09-25T00:24:03.677Z,13.93
2022-09-25T00:26:36.354Z,19.85
2022-09-25T00:29:06.071Z,20.35
2022-09-25T00:31:35.258Z,16.65
2022-09-25T00:34:05.738Z,18.13
2022-09-25T00:36:35.109Z,20.52
2022-09-25T00:39:04.520Z,13.27
2022-09-25T00:41:35.545Z,13.65
2022-09-25T00:44:26.412Z,7.53
2022-09-25T00:46:56.838Z,9.35
2022-09-25T00:49:26.606Z,9.13
2022-09-25T00:51:57.304Z,7.53
2022-09-25T00:54:28.924Z,13.50
2022-09-25T00:57:02.924Z,12.43
2022-09-25T00:59:37.722Z,19.83
2022-09-25T01:02:08.461Z,16.40
2022-09-25T01:04:39.025Z,12.00
2022-09-25T01:07:08.919Z,14.23
2022-09-25T01:09:39.141Z,21.15
2022-09-25T01:12:09.412Z,15.55
2022-09-25T01:14:42.870Z,17.50
2022-09-25T01:17:16.859Z,12.00
2022-09-25T01:20:03.832Z,13.38
2022-09-25T01:22:53.120Z,15.45
2022-09-25T01:25:40.165Z,9.13
2022-09-25T01:28:27.089Z,10.15
2022-09-25T01:30:58.705Z,8.77
2022-09-25T01:33:36.297Z,10.85
2022-09-25T01:36:07.464Z,9.90
2022-09-25T01:38:39.009Z,8.65
2022-09-25T01:41:13.236Z,11.10
2022-09-25T01:44:01.617Z,11.00
2022-09-25T01:46:35.343Z,9.23
2022-09-25T01:49:10.885Z,11.48
2022-09-25T01:51:41.877Z,7.25
2022-09-25T01:54:17.692Z,5.25
2022-09-25T01:56:51.320Z,12.45
2022-09-25T02:01:50.006Z,10.45
2022-09-25T02:04:25.760Z,11.05
2022-09-25T02:06:55.650Z,11.55
2022-09-25T02:09:34.932Z,17.20
2022-09-25T02:12:08.520Z,7.45
2022-09-25T02:14:40.408Z,5.78
2022-09-25T02:17:12.594Z,10.52
2022-09-25T02:19:58.970Z,8.10
2022-09-25T02:22:30.870Z,8.85
2022-09-25T02:25:05.041Z,7.40
2022-09-25T02:27:35.694Z,8.50
2022-09-25T02:30:04.518Z,8.80
2022-09-25T02:32:35.266Z,11.55
2022-09-25T02:35:06.004Z,9.00
2022-09-25T02:37:45.160Z,17.00
2022-09-25T02:40:15.135Z,6.72
2022-09-25T02:42:59.411Z,8.32
2022-09-25T02:45:31.100Z,13.52
2022-09-25T02:48:13.478Z,9.35
2022-09-25T02:51:02.522Z,12.23
2022-09-25T02:53:30.857Z,7.65
2022-09-25T02:56:01.545Z,8.35
2022-09-25T02:58:33.190Z,2.88
2022-09-25T03:01:04.578Z,6.88
2022-09-25T03:03:33.333Z,10.48
2022-09-25T03:06:03.837Z,6.25
2022-09-25T03:08:41.462Z,9.98
2022-09-25T03:11:15.862Z,11.95
2022-09-25T03:13:45.253Z,5.40
2022-09-25T03:16:32.122Z,7.60
2022-09-25T03:19:03.000Z,4.53
2022-09-25T03:21:35.515Z,12.98
2022-09-25T03:24:07.104Z,6.00
2022-09-25T03:26:41.520Z,10.25
2022-09-25T03:29:10.147Z,7.05
2022-09-25T03:31:42.641Z,5.43
2022-09-25T03:34:13.732Z,7.38
2022-09-25T03:36:42.026Z,7.45
2022-09-25T03:39:10.986Z,14.15
2022-09-25T03:41:39.991Z,9.43
2022-09-25T03:44:08.890Z,8.20
2022-09-25T03:46:37.714Z,5.57
2022-09-25T03:49:06.420Z,8.43
2022-09-25T03:51:35.806Z,10.35
2022-09-25T03:54:04.951Z,10.35
2022-09-25T03:56:35.892Z,10.90
2022-09-25T03:59:05.169Z,8.02
2022-09-25T04:01:33.405Z,4.50
2022-09-25T04:04:03.212Z,12.20
2022-09-25T04:06:39.697Z,12.57
2022-09-25T04:09:09.020Z,9.30
2022-09-25T04:11:45.077Z,10.20
2022-09-25T04:14:14.712Z,10.27
2022-09-25T04:16:43.544Z,18.35
2022-09-25T04:19:13.802Z,17.88
2022-09-25T04:21:42.560Z,5.30
2022-09-25T04:24:28.969Z,12.88
2022-09-25T04:27:00.536Z,11.65
2022-09-25T04:29:32.083Z,11.93
2022-09-25T04:32:19.541Z,9.63
2022-09-25T04:34:48.967Z,20.23
2022-09-25T04:37:18.310Z,7.65
2022-09-25T04:39:46.958Z,6.85
2022-09-25T04:42:16.481Z,9.55
2022-09-25T04:44:45.329Z,9.35
2022-09-25T04:47:14.055Z,11.05
2022-09-25T04:49:42.582Z,16.90
2022-09-25T04:52:13.228Z,8.05
2022-09-25T04:54:43.161Z,13.27
2022-09-25T04:57:23.453Z,15.98
2022-09-25T05:00:04.165Z,9.80
2022-09-25T05:02:38.789Z,8.18
2022-09-25T05:05:07.579Z,10.55
2022-09-25T05:07:37.328Z,7.25
2022-09-25T05:10:08.779Z,10.25
2022-09-25T05:12:42.185Z,8.85
2022-09-25T05:15:11.006Z,14.18
2022-09-25T05:17:46.473Z,11.18
2022-09-25T05:20:17.811Z,10.02
2022-09-25T05:22:55.300Z,7.82
2022-09-25T05:25:25.377Z,11.75
2022-09-25T05:27:58.250Z,8.90
2022-09-25T05:30:29.744Z,8.93
2022-09-25T05:33:14.329Z,9.35
2022-09-25T05:35:44.417Z,7.00
2022-09-25T05:38:13.383Z,12.65
2022-09-25T05:40:42.224Z,10.10
2022-09-25T05:43:12.486Z,5.32
2022-09-25T05:45:42.358Z,5.15
2022-09-25T05:48:13.053Z,8.48
2022-09-25T05:50:41.450Z,4.53
2022-09-25T05:53:10.363Z,6.20
2022-09-25T05:55:40.709Z,8.35
2022-09-25T05:58:10.218Z,7.75
2022-09-25T06:00:39.031Z,9.15
2022-09-25T06:03:24.753Z,5.28
2022-09-25T06:05:56.129Z,12.18
2022-09-25T06:08:24.605Z,8.23
2022-09-25T06:10:55.535Z,5.68
2022-09-25T06:13:25.107Z,14.90
2022-09-25T06:15:55.105Z,6.32
2022-09-25T06:18:24.826Z,16.17
2022-09-25T06:20:59.813Z,12.98
2022-09-25T06:23:29.265Z,4.85
2022-09-25T06:26:03.024Z,9.48
2022-09-25T06:28:36.485Z,4.00
2022-09-25T06:31:07.402Z,9.15
2022-09-25T06:33:37.697Z,11.40
2022-09-25T06:36:07.254Z,9.35
2022-09-25T06:38:36.080Z,10.23
2022-09-25T06:41:05.689Z,14.32
2022-09-25T06:43:34.244Z,10.13
2022-09-25T06:46:03.783Z,5.20
2022-09-25T06:48:34.644Z,8.57
2022-09-25T06:51:03.733Z,6.35
2022-09-25T06:53:34.249Z,13.20
2022-09-25T06:56:03.548Z,8.65
2022-09-25T06:58:34.085Z,8.52
2022-09-25T07:01:09.657Z,12.60
2022-09-25T07:03:45.975Z,6.80
2022-09-25T07:06:22.699Z,11.00
2022-09-25T07:08:51.990Z,5.47
2022-09-25T07:11:27.992Z,8.35
2022-09-25T07:14:01.706Z,7.13
2022-09-25T07:16:32.488Z,6.65
2022-09-25T07:19:03.328Z,9.98
2022-09-25T07:21:33.696Z,7.53
2022-09-25T07:24:02.622Z,11.75
2022-09-25T07:26:42.363Z,4.90
2022-09-25T07:29:12.658Z,17.85
2022-09-25T07:31:43.872Z,8.65
2022-09-25T07:34:13.036Z,7.05
2022-09-25T07:36:43.657Z,9.38
2022-09-25T07:39:17.545Z,7.05
2022-09-25T07:41:47.820Z,7.70
2022-09-25T07:44:37.829Z,10.63
2022-09-25T07:47:05.227Z,12.10
2022-09-25T07:49:35.493Z,8.18
2022-09-25T07:52:06.570Z,9.15
2022-09-25T07:54:39.633Z,18.92
2022-09-25T07:57:09.923Z,8.93
2022-09-25T07:59:42.530Z,10.68
2022-09-25T08:02:11.985Z,8.75
2022-09-25T08:04:42.090Z,14.95
2022-09-25T08:07:11.558Z,7.53
2022-09-25T08:09:40.566Z,10.23
2022-09-25T08:12:11.635Z,14.25
2022-09-25T08:14:41.757Z,15.77
2022-09-25T08:17:12.925Z,8.65
2022-09-25T08:19:43.068Z,12.30
2022-09-25T08:22:11.838Z,16.83
2022-09-25T08:24:41.080Z,11.63
2022-09-25T08:27:09.438Z,7.93
2022-09-25T08:29:38.341Z,8.88
2022-09-25T08:32:17.030Z,8.32
2022-09-25T08:34:49.359Z,8.68
2022-09-25T08:37:19.550Z,8.52
2022-09-25T08:39:51.126Z,5.97
2022-09-25T08:42:24.331Z,9.73
2022-09-25T08:45:21.717Z,6.05
2022-09-25T08:48:10.042Z,10.40
2022-09-25T08:50:38.808Z,9.35
2022-09-25T08:56:08.789Z,5.28
2022-09-25T08:58:43.067Z,7.28
2022-09-25T09:01:37.642Z,6.15
2022-09-25T09:04:20.252Z,4.53
2022-09-25T09:07:08.019Z,5.88
2022-09-25T09:09:45.327Z,3.58
2022-09-25T09:12:16.628Z,3.70
2022-09-25T09:14:47.091Z,6.13
2022-09-25T09:17:18.086Z,12.45
2022-09-25T09:19:48.124Z,7.32
2022-09-25T09:22:18.005Z,5.43
2022-09-25T09:24:55.860Z,8.07
2022-09-25T09:27:25.703Z,6.38
2022-09-25T09:30:05.848Z,6.10
2022-09-25T09:32:59.632Z,4.85
2022-09-25T09:35:47.652Z,9.30
2022-09-25T09:38:18.352Z,2.22
2022-09-25T09:40:51.686Z,8.48
2022-09-25T09:43:31.890Z,3.92
2022-09-25T09:46:04.099Z,8.32
2022-09-25T09:48:36.316Z,10.10
2022-09-25T09:51:08.349Z,6.13
2022-09-25T09:53:42.217Z,4.15
2022-09-25T09:58:45.837Z,7.00
2022-09-25T10:01:36.771Z,1.55
2022-09-25T10:04:05.782Z,7.70
2022-09-25T10:06:37.535Z,5.75
2022-09-25T10:09:06.841Z,4.60
2022-09-25T10:11:37.564Z,1.65
2022-09-25T10:14:06.029Z,4.43
2022-09-25T10:16:34.968Z,1.88
2022-09-25T10:19:12.070Z,3.28
2022-09-25T10:21:47.344Z,4.10
2022-09-25T10:24:36.676Z,3.28
2022-09-25T10:27:23.418Z,4.28
2022-09-25T10:30:06.777Z,2.22
2022-09-25T10:32:58.314Z,2.40
2022-09-25T10:35:29.488Z,11.27
2022-09-25T10:37:59.298Z,3.67
2022-09-25T10:40:35.890Z,5.57
2022-09-25T10:43:07.219Z,2.97
2022-09-25T10:45:36.963Z,4.05
2022-09-25T10:48:42.496Z,3.42
2022-09-25T10:51:11.751Z,4.03
2022-09-25T10:53:39.928Z,7.55
2022-09-25T10:56:12.424Z,3.72
2022-09-25T10:58:43.199Z,4.80
2022-09-25T11:01:13.449Z,4.72
2022-09-25T11:03:53.481Z,3.65
2022-09-25T11:06:26.842Z,2.95
2022-09-25T11:09:07.762Z,2.30
2022-09-25T11:11:41.324Z,5.40
2022-09-25T11:14:20.980Z,4.18
2022-09-25T11:16:52.960Z,1.10
2022-09-25T11:19:28.844Z,2.97
2022-09-25T11:21:59.953Z,4.80
2022-09-25T11:24:49.912Z,3.85
2022-09-25T11:27:24.684Z,3.00
2022-09-25T11:29:55.711Z,2.85
2022-09-25T11:32:24.287Z,8.23
2022-09-25T11:34:55.625Z,4.38
2022-09-25T11:37:28.451Z,2.40
2022-09-25T11:40:18.276Z,7.43
2022-09-25T11:42:51.961Z,4.40
2022-09-25T11:45:43.474Z,0.77
2022-09-25T11:48:16.954Z,4.20
2022-09-25T11:50:56.077Z,2.00
2022-09-25T11:53:43.999Z,2.17
2022-09-25T11:56:18.294Z,2.30
2022-09-25T11:58:53.217Z,0.70
2022-09-25T12:01:33.347Z,1.33
2022-09-25T12:04:09.149Z,1.13
2022-09-25T12:06:53.235Z,5.53
2022-09-25T12:09:34.140Z,0.52
2022-09-25T12:12:05.847Z,2.83
2022-09-25T12:14:52.683Z,1.60
2022-09-25T12:17:40.261Z,2.70
2022-09-25T12:20:23.359Z,3.00
2022-09-25T12:22:51.873Z,4.55
2022-09-25T12:25:30.613Z,2.17
2022-09-25T12:28:04.858Z,3.45
2022-09-25T12:30:41.200Z,4.28
2022-09-25T12:33:12.600Z,3.50
2022-09-25T12:35:58.238Z,3.22
2022-09-25T12:38:32.632Z,2.45
2022-09-25T12:41:06.912Z,2.50
2022-09-25T12:43:41.171Z,2.63
2022-09-25T12:46:10.248Z,6.28
2022-09-25T12:48:45.101Z,1.35
2022-09-25T12:51:22.508Z,1.73
2022-09-25T12:53:53.379Z,2.75
2022-09-25T12:56:25.844Z,3.08
2022-09-25T12:59:00.412Z,4.07
2022-09-25T13:01:32.503Z,10.02
2022-09-25T13:04:11.651Z,4.25
2022-09-25T13:06:56.050Z,4.18
2022-09-25T13:09:33.700Z,3.42
2022-09-25T13:12:17.714Z,2.72
2022-09-25T13:14:55.821Z,3.25
2022-09-25T13:17:24.757Z,1.55
2022-09-25T13:19:53.619Z,2.15
2022-09-25T13:22:24.841Z,5.03
2022-09-25T13:25:03.848Z,1.35
2022-09-25T13:27:42.497Z,2.90
2022-09-25T13:30:21.771Z,5.97
2022-09-25T13:32:58.918Z,3.08
2022-09-25T13:35:28.228Z,1.27
2022-09-25T13:38:09.812Z,2.85
2022-09-25T13:40:44.047Z,3.72
2022-09-25T13:43:26.682Z,8.25
2022-09-25T13:46:14.570Z,1.05
2022-09-25T13:48:43.613Z,4.43
2022-09-25T13:51:23.699Z,6.38
2022-09-25T13:54:05.483Z,5.57
2022-09-25T13:56:34.261Z,3.00
2022-09-25T13:59:20.710Z,2.95
2022-09-25T14:01:53.913Z,3.08
2022-09-25T14:04:25.074Z,4.22
2022-09-25T14:06:57.063Z,3.25
2022-09-25T14:09:26.508Z,3.65
2022-09-25T14:11:57.873Z,5.55
2022-09-25T14:15:06.121Z,4.63
2022-09-25T14:17:38.282Z,3.47
2022-09-25T14:20:11.124Z,3.55
2022-09-25T14:22:47.148Z,2.95
2022-09-25T14:25:34.983Z,1.38
2022-09-25T14:28:05.623Z,3.65
2022-09-25T14:30:37.749Z,4.00
2022-09-25T14:35:57.469Z,1.95
2022-09-25T14:38:45.096Z,10.20
2022-09-25T14:41:31.094Z,3.05
2022-09-25T14:44:19.442Z,3.45
2022-09-25T14:46:49.588Z,4.15
2022-09-25T14:49:29.299Z,3.47
2022-09-25T14:52:01.300Z,1.85
2022-09-25T14:54:32.981Z,5.85
2022-09-25T14:57:05.390Z,3.08
2022-09-25T14:59:49.622Z,4.07
2022-09-25T15:02:31.680Z,6.13
2022-09-25T15:05:17.476Z,4.95
2022-09-25T15:07:47.405Z,7.15
2022-09-25T15:10:30.913Z,4.82
2022-09-25T15:13:10.026Z,4.63
2022-09-25T15:16:03.193Z,2.85
2022-09-25T15:18:37.850Z,5.20
2022-09-25T15:21:11.453Z,2.13
2022-09-25T15:23:45.323Z,2.83
2022-09-25T15:26:18.936Z,3.25
2022-09-25T15:31:20.671Z,2.47
2022-09-25T15:34:03.382Z,5.40
2022-09-25T15:36:34.405Z,5.88
2022-09-25T15:39:09.955Z,2.63
2022-09-25T15:41:38.590Z,5.15
2022-09-25T15:44:15.208Z,2.60
2022-09-25T15:46:51.979Z,6.13
2022-09-25T15:49:25.733Z,5.25
2022-09-25T15:52:01.035Z,10.73
2022-09-25T15:54:56.590Z,5.45
2022-09-25T15:57:27.652Z,3.50
2022-09-25T16:00:13.693Z,4.57
2022-09-25T16:03:13.513Z,4.28
2022-09-25T16:05:45.500Z,2.60
2022-09-25T16:08:24.285Z,5.97
2022-09-25T16:11:04.948Z,3.95
2022-09-25T16:13:36.673Z,10.15
2022-09-25T16:16:04.987Z,2.85
2022-09-25T16:18:40.413Z,5.78
2022-09-25T16:21:23.081Z,5.55
2022-09-25T16:23:56.023Z,1.70
2022-09-25T16:29:15.439Z,3.55
2022-09-25T16:31:45.732Z,2.83
2022-09-25T16:34:25.797Z,3.75
2022-09-25T16:36:55.960Z,12.73
2022-09-25T16:39:27.540Z,5.28
2022-09-25T16:41:58.544Z,8.02
2022-09-25T16:44:33.216Z,1.20
2022-09-25T16:47:01.840Z,0.90
2022-09-25T16:49:32.903Z,1.42
2022-09-25T16:52:01.836Z,2.78
2022-09-25T16:54:33.771Z,0.45
2022-09-25T16:57:04.128Z,1.52
2022-09-25T16:59:34.006Z,6.93
2022-09-25T17:02:04.850Z,1.10
2022-09-25T17:04:36.137Z,1.48
2022-09-25T17:07:04.515Z,1.92
2022-09-25T17:09:33.350Z,1.50
2022-09-25T17:12:07.563Z,3.70
2022-09-25T17:14:43.932Z,3.13
2022-09-25T17:17:22.899Z,3.15
2022-09-25T17:19:57.292Z,3.65
2022-09-25T17:22:30.262Z,2.03
2022-09-25T17:25:01.865Z,1.02
2022-09-25T17:27:32.318Z,1.08
2022-09-25T17:30:01.297Z,1.92
2022-09-25T17:32:44.912Z,1.52
2022-09-25T17:35:22.614Z,3.58
2022-09-25T17:37:55.561Z,3.50
2022-09-25T17:40:25.728Z,3.00
2022-09-25T17:42:54.146Z,4.00
2022-09-25T17:45:28.594Z,29.02
2022-09-25T17:48:00.213Z,22.05
2022-09-25T17:50:31.307Z,4.80
2022-09-25T17:53:03.872Z,2.40
2022-09-25T17:55:34.096Z,2.33
2022-09-25T17:58:02.738Z,3.90
2022-09-25T18:00:36.285Z,3.60
2022-09-25T18:03:18.145Z,1.83
2022-09-25T18:05:47.811Z,1.65
2022-09-25T18:08:18.443Z,5.30
2022-09-25T18:10:48.856Z,4.68
2022-09-25T18:13:20.072Z,3.08
2022-09-25T18:15:59.969Z,1.80
2022-09-25T18:18:55.877Z,2.78
2022-09-25T18:21:41.598Z,1.50
2022-09-25T18:24:10.405Z,2.00
2022-09-25T18:26:39.291Z,3.40
2022-09-25T18:29:09.910Z,3.15
2022-09-25T18:31:38.447Z,2.70
2022-09-25T18:34:08.504Z,2.70
2022-09-25T18:36:38.208Z,2.53
2022-09-25T18:39:08.075Z,1.42
2022-09-25T18:41:44.904Z,3.97
2022-09-25T18:44:17.552Z,4.95
2022-09-25T18:46:47.770Z,2.15
2022-09-25T18:49:17.850Z,1.90
2022-09-25T18:51:46.380Z,1.35
2022-09-25T18:54:17.328Z,2.75
2022-09-25T18:56:45.981Z,4.50
2022-09-25T18:59:17.157Z,4.53
2022-09-25T19:01:46.507Z,1.50
2022-09-25T19:04:17.720Z,24.90
2022-09-25T19:06:49.080Z,53.65
2022-09-25T19:09:19.958Z,19.23
2022-09-25T19:11:49.220Z,7.57
2022-09-25T19:14:22.004Z,4.03
2022-09-25T19:16:51.760Z,2.22
2022-09-25T19:19:24.740Z,3.50
2022-09-25T19:21:58.281Z,4.97
2022-09-25T19:24:28.265Z,1.90
2022-09-25T19:26:56.918Z,8.13
2022-09-25T19:29:25.857Z,4.30
2022-09-25T19:31:55.288Z,4.95
2022-09-25T19:34:26.480Z,6.57
2022-09-25T19:36:56.307Z,1.95
2022-09-25T19:39:26.701Z,3.45
2022-09-25T19:41:55.884Z,2.92
2022-09-25T19:44:26.148Z,7.47
2022-09-25T19:46:56.633Z,3.35
2022-09-25T19:49:24.912Z,5.90
2022-09-25T19:51:53.439Z,4.93
2022-09-25T19:54:23.897Z,3.13
2022-09-25T19:56:53.342Z,3.85
2022-09-25T19:59:22.114Z,5.18
2022-09-25T20:01:53.422Z,6.15
2022-09-25T20:04:23.080Z,2.75
2022-09-25T20:06:51.737Z,4.70
2022-09-25T20:09:21.795Z,4.18
2022-09-25T20:11:50.400Z,4.45
2022-09-25T20:14:25.203Z,2.20
2022-09-25T20:19:22.928Z,1.48
2022-09-25T20:21:52.979Z,2.10
2022-09-25T20:24:23.818Z,3.25
2022-09-25T20:26:53.289Z,5.55
2022-09-25T20:29:22.085Z,2.78
2022-09-25T20:31:50.513Z,4.00
2022-09-25T20:34:20.960Z,6.03
2022-09-25T20:36:49.381Z,4.40
2022-09-25T20:39:21.355Z,6.50
2022-09-25T20:41:52.042Z,4.35
2022-09-25T20:44:20.590Z,2.83
2022-09-25T20:46:49.011Z,4.63
2022-09-25T20:49:19.993Z,3.40
2022-09-25T20:51:49.951Z,9.30
2022-09-25T20:54:18.839Z,2.47
2022-09-25T20:56:48.237Z,5.43
2022-09-25T20:59:17.744Z,2.92
2022-09-25T21:01:49.065Z,1.48
2022-09-25T21:04:18.369Z,5.13
2022-09-25T21:06:47.630Z,2.88
2022-09-25T21:09:22.013Z,9.02
2022-09-25T21:11:51.377Z,2.17
2022-09-25T21:14:26.000Z,8.32
2022-09-25T21:16:57.151Z,6.00
2022-09-25T21:19:26.083Z,4.45
2022-09-25T21:21:55.598Z,2.10
2022-09-25T21:24:25.101Z,2.97
2022-09-25T21:26:54.736Z,4.47
2022-09-25T21:29:26.484Z,5.10
2022-09-25T21:31:58.798Z,3.97
2022-09-25T21:34:27.600Z,4.72
2022-09-25T21:36:58.213Z,3.33
2022-09-25T21:39:34.260Z,4.28
2022-09-25T21:42:10.051Z,3.75
2022-09-25T21:44:51.081Z,4.47
2022-09-25T21:47:19.983Z,5.45
2022-09-25T21:49:49.188Z,5.82
2022-09-25T21:52:17.494Z,3.17
2022-09-25T21:54:46.480Z,3.95
2022-09-25T21:57:15.525Z,5.63
2022-09-25T21:59:44.025Z,5.13
2022-09-25T22:02:15.596Z,3.03
2022-09-25T22:04:46.424Z,5.78
2022-09-25T22:07:16.617Z,4.97
2022-09-25T22:09:44.923Z,3.92
2022-09-25T22:12:15.785Z,2.90
2022-09-25T22:14:45.781Z,5.80
2022-09-25T22:17:14.227Z,5.13
2022-09-25T22:19:45.277Z,5.05
2022-09-25T22:22:20.485Z,4.78
2022-09-25T22:24:49.622Z,6.00
2022-09-25T22:27:18.821Z,3.83
2022-09-25T22:29:47.181Z,4.18
2022-09-25T22:32:15.598Z,3.00
2022-09-25T22:34:44.838Z,11.27
2022-09-25T22:37:18.322Z,2.33
2022-09-25T22:39:47.013Z,2.95
2022-09-25T22:42:15.417Z,4.78
2022-09-25T22:44:44.185Z,8.73
2022-09-25T22:47:18.457Z,4.93
2022-09-25T22:49:49.095Z,3.00
2022-09-25T22:52:19.109Z,4.72
2022-09-25T22:54:50.629Z,3.40
2022-09-25T22:57:19.498Z,4.30
2022-09-25T22:59:49.404Z,4.72
2022-09-25T23:02:18.851Z,3.13
2022-09-25T23:04:49.305Z,6.72
2022-09-25T23:07:18.252Z,5.40
2022-09-25T23:09:46.756Z,3.08
2022-09-25T23:12:16.812Z,2.85
2022-09-25T23:14:47.018Z,2.97
2022-09-25T23:17:15.337Z,3.30
2022-09-25T23:19:45.331Z,3.88
2022-09-25T23:22:17.457Z,5.80
2022-09-25T23:24:46.709Z,3.60
2022-09-25T23:27:16.810Z,8.45
2022-09-25T23:29:45.279Z,2.45
2022-09-25T23:32:13.886Z,4.63
2022-09-25T23:34:44.114Z,3.42
2022-09-25T23:37:13.638Z,6.90
2022-09-25T23:39:41.977Z,4.05
2022-09-25T23:42:11.390Z,6.53
2022-09-25T23:44:40.193Z,4.90
2022-09-25T23:47:08.795Z,5.60
2022-09-25T23:49:37.862Z,5.15
2022-09-25T23:52:08.778Z,13.40
2022-09-25T23:54:38.045Z,8.13
2022-09-25T23:57:07.504Z,4.97
2022-09-25T23:59:38.661Z,7.38
